createdAt,value
2018-10-02T00:03:19.683Z,2.67
2018-10-02T00:08:22.900Z,2.37
2018-10-02T00:13:31.536Z,2.10
2018-10-02T00:18:34.766Z,2.40
2018-10-02T00:23:37.998Z,2.37
2018-10-02T00:28:41.243Z,2.87
2018-10-02T00:33:44.480Z,2.87
2018-10-02T00:38:47.709Z,1.83
2018-10-02T00:43:51.328Z,2.50
2018-10-02T00:48:54.612Z,2.97
2018-10-02T00:53:57.852Z,3.17
2018-10-02T00:59:01.079Z,2.57
2018-10-02T01:04:04.307Z,2.93
2018-10-02T01:09:09.607Z,3.13
2018-10-02T01:14:13.160Z,2.83
2018-10-02T01:19:16.368Z,2.87
2018-10-02T01:24:19.596Z,3.50
2018-10-02T01:29:22.847Z,3.13
2018-10-02T01:34:26.167Z,2.53
2018-10-02T01:39:29.397Z,2.33
2018-10-02T01:44:32.624Z,2.70
2018-10-02T01:49:35.878Z,3.47
2018-10-02T01:54:39.683Z,3.23
2018-10-02T01:59:42.980Z,2.70
2018-10-02T02:04:46.247Z,2.90
2018-10-02T02:09:49.567Z,3.50
2018-10-02T02:14:52.840Z,3.20
2018-10-02T02:19:56.114Z,2.70
2018-10-02T02:24:59.456Z,3.33
2018-10-02T02:30:02.726Z,3.67
2018-10-02T02:35:06.003Z,3.50
2018-10-02T02:40:09.280Z,3.00
2018-10-02T02:45:12.520Z,3.60
2018-10-02T02:50:21.084Z,3.60
2018-10-02T02:55:24.352Z,3.63
2018-10-02T03:00:27.639Z,3.30
2018-10-02T03:05:30.836Z,4.20
2018-10-02T03:10:34.020Z,3.50
2018-10-02T03:15:37.252Z,3.50
2018-10-02T03:20:40.412Z,3.27
2018-10-02T03:25:43.604Z,3.40
2018-10-02T03:30:46.800Z,3.00
2018-10-02T03:35:49.984Z,3.67
2018-10-02T03:40:53.184Z,2.67
2018-10-02T03:45:56.559Z,3.10
2018-10-02T03:50:59.881Z,2.50
2018-10-02T03:56:03.152Z,2.80
2018-10-02T04:01:06.404Z,2.70
2018-10-02T04:06:09.676Z,2.97
2018-10-02T04:11:12.990Z,2.70
2018-10-02T04:16:16.279Z,2.60
2018-10-02T04:21:24.061Z,2.80
2018-10-02T04:26:27.384Z,2.67
2018-10-02T04:31:31.184Z,3.10
2018-10-02T04:36:34.467Z,2.30
2018-10-02T04:41:37.991Z,2.33
2018-10-02T04:46:41.233Z,2.07
2018-10-02T04:51:44.388Z,2.17
2018-10-02T04:56:47.608Z,2.00
2018-10-02T05:01:50.828Z,2.37
2018-10-02T05:06:54.020Z,2.60
2018-10-02T05:11:57.228Z,2.10
2018-10-02T05:17:00.435Z,3.50
2018-10-02T05:22:03.636Z,2.30
2018-10-02T05:27:06.890Z,3.20
2018-10-02T05:32:10.019Z,3.00
2018-10-02T05:37:13.246Z,3.10
2018-10-02T05:42:16.555Z,3.20
2018-10-02T05:47:19.869Z,3.20
2018-10-02T05:52:23.145Z,3.33
2018-10-02T05:57:26.400Z,3.40
2018-10-02T06:02:31.544Z,3.40
2018-10-02T06:07:34.784Z,4.47
2018-10-02T06:12:38.047Z,3.33
2018-10-02T06:17:41.331Z,3.90
2018-10-02T06:22:44.595Z,4.43
2018-10-02T06:27:47.848Z,3.93
2018-10-02T06:32:51.159Z,4.90
2018-10-02T06:37:54.429Z,4.77
2018-10-02T06:42:57.607Z,3.00
2018-10-02T06:48:00.799Z,4.67
2018-10-02T06:53:04.383Z,4.10
2018-10-02T06:58:07.547Z,4.70
2018-10-02T07:03:10.752Z,4.23
2018-10-02T07:08:13.929Z,3.90
2018-10-02T07:13:17.113Z,4.03
2018-10-02T07:18:20.340Z,4.20
2018-10-02T07:23:23.524Z,4.37
2018-10-02T07:28:26.764Z,3.30
2018-10-02T07:33:29.954Z,3.30
2018-10-02T07:38:33.236Z,3.70
2018-10-02T07:43:36.577Z,3.50
2018-10-02T07:48:39.820Z,3.50
2018-10-02T07:53:43.149Z,3.20
2018-10-02T07:58:46.357Z,2.90
2018-10-02T08:03:49.629Z,3.37
2018-10-02T08:08:52.934Z,3.60
2018-10-02T08:13:56.134Z,3.23
2018-10-02T08:18:59.404Z,3.00
2018-10-02T08:24:02.743Z,2.53
2018-10-02T08:29:05.998Z,2.30
2018-10-02T08:34:09.272Z,2.63
2018-10-02T08:39:12.516Z,2.37
2018-10-02T08:44:15.744Z,3.13
2018-10-02T08:49:18.912Z,2.43
2018-10-02T08:54:22.087Z,2.30
2018-10-02T08:59:25.312Z,2.53
2018-10-02T09:04:28.564Z,1.90
2018-10-02T09:09:31.772Z,2.00
2018-10-02T09:14:34.979Z,2.37
2018-10-02T09:19:38.168Z,1.90
2018-10-02T09:24:41.469Z,1.60
2018-10-02T09:29:50.092Z,1.97
2018-10-02T09:34:58.555Z,2.03
2018-10-02T09:40:07.178Z,1.67
2018-10-02T09:45:10.440Z,1.70
2018-10-02T09:50:14.080Z,2.30
2018-10-02T09:55:17.339Z,1.70
2018-10-02T10:00:21.370Z,1.50
2018-10-02T10:05:24.780Z,1.27
2018-10-02T10:10:28.466Z,1.00
2018-10-02T10:15:31.702Z,1.90
2018-10-02T10:20:34.999Z,1.87
2018-10-02T10:25:38.225Z,1.63
2018-10-02T10:30:41.501Z,1.20
2018-10-02T10:35:44.764Z,1.20
2018-10-02T10:40:48.063Z,2.03
2018-10-02T10:45:51.279Z,1.43
2018-10-02T10:50:54.528Z,1.07
2018-10-02T10:55:57.812Z,1.07
2018-10-02T11:01:01.097Z,1.00
2018-10-02T11:06:04.344Z,1.00
2018-10-02T11:11:07.631Z,1.30
2018-10-02T11:16:10.883Z,1.10
2018-10-02T11:21:14.169Z,1.03
2018-10-02T11:26:17.440Z,0.93
2018-10-02T11:31:20.808Z,0.93
2018-10-02T11:36:24.032Z,1.00
2018-10-02T11:41:28.128Z,0.70
2018-10-02T11:46:31.390Z,0.80
2018-10-02T11:51:34.539Z,1.00
2018-10-02T11:56:37.724Z,1.10
2018-10-02T12:01:40.909Z,1.03
2018-10-02T12:06:44.179Z,1.00
2018-10-02T12:11:47.333Z,1.10
2018-10-02T12:16:50.839Z,0.80
2018-10-02T12:21:54.295Z,0.90
2018-10-02T12:26:57.481Z,0.90
2018-10-02T12:32:00.668Z,0.70
2018-10-02T12:37:03.859Z,0.70
2018-10-02T12:42:07.132Z,2.33
2018-10-02T12:47:10.400Z,1.00
2018-10-02T12:52:13.725Z,1.60
2018-10-02T12:57:16.923Z,1.20
2018-10-02T13:02:20.225Z,1.23
2018-10-02T13:07:23.503Z,0.70
2018-10-02T13:12:26.777Z,0.80
2018-10-02T13:17:30.031Z,1.07
2018-10-02T13:22:33.300Z,0.97
2018-10-02T13:27:36.571Z,0.90
2018-10-02T13:32:39.840Z,0.80
2018-10-02T13:37:43.133Z,0.73
2018-10-02T13:42:46.347Z,0.70
2018-10-02T13:47:49.544Z,0.70
2018-10-02T13:52:52.859Z,1.07
2018-10-02T13:57:56.158Z,0.70
2018-10-02T14:02:59.688Z,0.70
2018-10-02T14:08:02.950Z,1.03
2018-10-02T14:13:06.293Z,1.63
2018-10-02T14:18:09.464Z,1.20
2018-10-02T14:23:12.652Z,1.60
2018-10-02T14:28:15.891Z,1.50
2018-10-02T14:33:19.021Z,1.97
2018-10-02T14:38:22.200Z,1.53
2018-10-02T14:43:25.416Z,1.93
2018-10-02T14:48:29.136Z,2.07
2018-10-02T14:53:32.939Z,2.40
2018-10-02T14:58:36.896Z,2.70
2018-10-02T15:03:40.128Z,3.10
2018-10-02T15:08:43.575Z,3.30
2018-10-02T15:14:49.493Z,2.90
2018-10-02T15:19:52.675Z,3.70
2018-10-02T15:24:55.858Z,4.13
2018-10-02T15:29:59.110Z,3.37
2018-10-02T15:35:02.314Z,4.27
2018-10-02T15:40:05.503Z,4.90
2018-10-02T15:45:08.872Z,5.50
2018-10-02T15:50:12.128Z,5.50
2018-10-02T15:55:15.395Z,6.50
2018-10-02T16:00:18.663Z,6.20
2018-10-02T16:05:22.240Z,6.17
2018-10-02T16:10:25.506Z,8.53
2018-10-02T16:15:28.860Z,8.40
2018-10-02T16:20:32.111Z,7.83
2018-10-02T16:25:35.368Z,8.90
2018-10-02T16:30:38.628Z,9.77
2018-10-02T16:35:41.877Z,8.97
2018-10-02T16:40:45.204Z,9.77
2018-10-02T16:45:48.460Z,8.90
2018-10-02T16:50:51.750Z,9.57
2018-10-02T16:55:55.027Z,9.50
2018-10-02T17:00:58.307Z,8.30
2018-10-02T17:06:01.568Z,9.20
2018-10-02T17:11:04.848Z,8.37
2018-10-02T17:16:08.080Z,9.50
2018-10-02T17:21:11.484Z,8.70
2018-10-02T17:26:14.768Z,9.10
2018-10-02T17:31:18.014Z,9.40
2018-10-02T17:36:21.335Z,8.93
2018-10-02T17:41:24.585Z,9.73
2018-10-02T17:46:27.788Z,7.77
2018-10-02T17:51:31.172Z,8.40
2018-10-02T17:56:34.378Z,9.40
2018-10-02T18:01:37.597Z,9.60
2018-10-02T18:06:40.878Z,9.93
2018-10-02T18:11:44.072Z,8.50
2018-10-02T18:16:47.355Z,8.07
2018-10-02T18:21:50.612Z,9.00
2018-10-02T18:26:53.804Z,7.90
2018-10-02T18:31:56.968Z,7.67
2018-10-02T18:37:00.196Z,9.33
2018-10-02T18:42:03.413Z,8.20
2018-10-02T18:47:06.661Z,9.03
2018-10-02T18:52:09.843Z,7.60
2018-10-02T18:57:13.056Z,6.27
2018-10-02T19:02:16.456Z,7.07
2018-10-02T19:07:21.254Z,6.50
2018-10-02T19:12:24.534Z,5.70
2018-10-02T19:17:27.863Z,5.77
2018-10-02T19:22:31.156Z,5.80
2018-10-02T19:27:34.494Z,4.53
2018-10-02T19:32:37.845Z,4.57
2018-10-02T19:37:46.399Z,4.97
2018-10-02T19:42:49.608Z,4.60
2018-10-02T19:47:52.792Z,4.80
2018-10-02T19:52:56.032Z,3.67
2018-10-02T19:57:59.189Z,4.30
2018-10-02T20:03:02.377Z,4.70
2018-10-02T20:08:05.664Z,3.77
2018-10-02T20:13:08.942Z,4.20
2018-10-02T20:18:12.061Z,4.43
2018-10-02T20:23:15.240Z,3.40
2018-10-02T20:28:18.475Z,3.50
2018-10-02T20:33:21.657Z,3.30
2018-10-02T20:38:24.809Z,3.00
2018-10-02T20:43:28.108Z,3.67
2018-10-02T20:48:31.348Z,3.03
2018-10-02T20:53:34.949Z,3.83
2018-10-02T20:58:38.192Z,2.40
2018-10-02T21:03:41.444Z,2.63
2018-10-02T21:08:44.711Z,3.00
2018-10-02T21:13:47.972Z,2.17
2018-10-02T21:18:51.218Z,3.37
2018-10-02T21:23:54.455Z,2.60
2018-10-02T21:28:57.755Z,2.17
2018-10-02T21:34:01.087Z,2.80
2018-10-02T21:39:06.206Z,2.53
2018-10-02T21:44:09.431Z,2.80
2018-10-02T21:49:12.625Z,3.13
2018-10-02T21:54:15.800Z,2.83
2018-10-02T21:59:18.964Z,3.00
2018-10-02T22:04:22.141Z,2.83
2018-10-02T22:09:25.332Z,3.40
2018-10-02T22:14:28.557Z,2.83
2018-10-02T22:19:31.816Z,2.93
2018-10-02T22:24:34.991Z,3.37
2018-10-02T22:29:38.213Z,2.87
2018-10-02T22:34:41.375Z,3.30
2018-10-02T22:39:44.549Z,2.90
2018-10-02T22:44:47.764Z,3.80
2018-10-02T22:49:50.947Z,2.80
2018-10-02T22:54:54.115Z,3.00
2018-10-02T22:59:57.312Z,3.13
2018-10-02T23:05:00.473Z,2.83
2018-10-02T23:10:03.669Z,3.17
2018-10-02T23:15:06.848Z,3.57
2018-10-02T23:20:10.264Z,3.10
2018-10-02T23:25:13.854Z,3.33
2018-10-02T23:30:17.039Z,2.37
2018-10-02T23:35:20.212Z,3.50
2018-10-02T23:40:23.387Z,2.93
2018-10-02T23:45:26.576Z,3.17
2018-10-02T23:50:29.772Z,2.33
2018-10-02T23:55:33.088Z,2.80
